Point Hope, AK

10:46 PM AKST on February 11, 2016 (GMT -0900)
Point Hope | | Change Station
CLOSE
Current Station
Airport
Location: Point Hope,
Elevation: 13 ft
Nearby Weather Stations

Elev 13 ft 68.35 °N, 166.80 °W | Updated 10 minutes ago

Overcast
Overcast
3 °F
Feels Like -18 °F
N
21
Wind Variable Wind from NNE

Today
High -- | Low -- °F
--% Chance of Precip.
Yesterday
High -- | Low -- °F
Precip. -- in
Pressure 29.87 in
Visibility 1.8 miles
Clouds Scattered Clouds 500 ft
Overcast 2500 ft
Windchill -18 °F
Dew Point 0 °F
Humidity 85%
Rainfall 0.00 in
Snow Depth Not available.
10:45 AM 5:58 PM
Waxing Crescent, 18% visible
METAR PAPO 120736Z AUTO 03018KT 1 3/4SM SCT005 OVC025 M16/M18 A2987 RMK AO1
Pressure 29.87 in
Visibility 1.8 miles
Clouds Scattered Clouds 500 ft
Overcast 2500 ft
Windchill -18 °F
Dew Point 0 °F
Humidity 85%
Rainfall 0.00 in
Snow Depth Not available.
10:45 AM 5:58 PM
Waxing Crescent, 18% visible
METAR PAPO 120736Z AUTO 03018KT 1 3/4SM SCT005 OVC025 M16/M18 A2987 RMK AO1

10-Day Weather Forecast

Almanac

Astronomy

Feb. 11, 2016 Rise Set
Actual Time
Civil Twilight
Nautical Twilight
Astronomical Twilight
Moon
Length of Visible Light
Length of Day
Tomorrow will be .
, % of the Moon is Illuminated

Today's Extremes

State Highs State Lows

Community

WunderPhotos

Upload Photos

1,892,278 photos uploaded!

WunderBlog® & News

Nearby

Air Quality

  Air Quality AQ Index Pollutant
Not available.

Snow Depth

Station Depth Elevation

Earthquake Activity

City Distance Mag. Time & Date
Minimum magnitude displayed is 2.5.

Coastal Water Temperatures

Place Temperature

Stations

Nearby Weather Stations

Station Location Temp. Windchill Dew Point Humidity Wind Precip. Elev Updated Type
                   

Watches & Warnings

There are currently no watches in effect.